Time;durP1;ratioP1;P1;durP2;ratioP2;P2;SDS_P1;SDS_P2;PMS_P1;PMS_P2;Temp;Humidity;BMP_temperature;BMP_pressure;BME280_temperature;BME280_humidity;BME280_pressure;Samples;Min_cycle;Max_cycle;Signal;HPM_P1;HPM_P2
2022/09/21 00:00:37;;;;;;;7.35;2.45;;;11.10;99.90;;;;;;4873027;29;38748;-84
2022/09/21 00:03:06;;;;;;;4.20;2.38;;;11.10;99.90;;;;;;4854797;29;38842;-83
2022/09/21 00:05:34;;;;;;;3.80;2.13;;;11.10;99.90;;;;;;4872580;29;39247;-84
2022/09/21 00:08:01;;;;;;;8.52;2.35;;;11.10;99.90;;;;;;4853449;29;37149;-83
2022/09/21 00:10:31;;;;;;;9.00;2.13;;;11.10;99.90;;;;;;4852408;29;40172;-84
2022/09/21 00:12:59;;;;;;;5.28;2.17;;;11.10;99.90;;;;;;4866347;29;37817;-84
2022/09/21 00:15:25;;;;;;;5.25;2.25;;;11.10;99.90;;;;;;4845871;29;37533;-83
2022/09/21 00:17:53;;;;;;;4.85;2.10;;;11.10;99.90;;;;;;4853807;29;36531;-83
2022/09/21 00:20:20;;;;;;;4.20;2.03;;;11.20;99.90;;;;;;4873664;29;38921;-83
2022/09/21 00:22:47;;;;;;;6.10;2.47;;;11.10;99.90;;;;;;4890222;29;37996;-83
2022/09/21 00:25:14;;;;;;;6.25;2.15;;;11.10;99.90;;;;;;4875290;29;38164;-83
2022/09/21 00:27:40;;;;;;;5.65;2.63;;;11.10;99.90;;;;;;4886006;29;37428;-82
2022/09/21 00:30:07;;;;;;;3.95;2.58;;;11.10;99.90;;;;;;4887336;29;38712;-83
2022/09/21 00:32:36;;;;;;;6.68;2.38;;;11.10;99.90;;;;;;4895325;29;38320;-84
2022/09/21 00:35:05;;;;;;;6.75;2.40;;;11.10;99.90;;;;;;4888173;29;36748;-83
2022/09/21 00:37:32;;;;;;;4.60;2.40;;;11.10;99.90;;;;;;4866680;29;47283;-83
2022/09/21 00:40:02;;;;;;;8.70;2.30;;;11.00;99.90;;;;;;4885950;29;38876;-84
2022/09/21 00:42:32;;;;;;;5.25;2.47;;;11.00;99.90;;;;;;4871095;29;39920;-83
2022/09/21 00:44:58;;;;;;;7.22;2.38;;;10.90;99.90;;;;;;4891358;29;40398;-81
2022/09/21 00:47:30;;;;;;;6.07;2.27;;;10.90;99.90;;;;;;4893902;29;38013;-84
2022/09/21 00:50:01;;;;;;;4.97;2.53;;;10.90;99.90;;;;;;4873246;29;39374;-84
2022/09/21 00:52:31;;;;;;;7.38;2.47;;;10.80;99.90;;;;;;4870790;29;38975;-84
2022/09/21 00:55:03;;;;;;;4.57;2.60;;;10.80;99.90;;;;;;4894245;29;38477;-83
2022/09/21 00:57:30;;;;;;;7.00;2.28;;;10.80;99.90;;;;;;4876358;29;37602;-84
2022/09/21 01:00:00;;;;;;;6.28;2.20;;;10.70;99.90;;;;;;4875850;29;39973;-84
2022/09/21 01:02:27;;;;;;;3.95;2.30;;;10.70;99.90;;;;;;5389565;23;40013;-80
2022/09/21 01:04:54;;;;;;;4.85;3.00;;;10.70;99.90;;;;;;4860334;29;36419;-80
2022/09/21 01:07:25;;;;;;;3.83;2.38;;;10.70;99.90;;;;;;4867312;29;37733;-80
2022/09/21 01:09:54;;;;;;;5.38;2.05;;;10.70;99.90;;;;;;4869610;29;40610;-79
2022/09/21 01:12:39;;;;;;;5.17;2.40;;;10.70;99.90;;;;;;4872772;29;39485;-80
2022/09/21 01:15:26;;;;;;;6.80;2.60;;;10.60;99.90;;;;;;4871943;29;39114;-80
2022/09/21 01:18:00;;;;;;;3.80;2.30;;;10.60;99.90;;;;;;4868195;29;36425;-80
2022/09/21 01:20:29;;;;;;;6.80;2.47;;;10.60;99.90;;;;;;4866763;29;39095;-79
2022/09/21 01:23:32;;;;;;;3.80;2.20;;;10.60;99.90;;;;;;4874830;29;40370;-79
2022/09/21 01:26:04;;;;;;;;;;;10.70;99.90;;;;;;4850829;29;46726;-79
2022/09/21 01:28:40;;;;;;;4.35;2.22;;;10.70;99.90;;;;;;4863025;29;47270;-80
2022/09/21 01:31:12;;;;;;;6.37;2.03;;;10.80;99.90;;;;;;4871906;29;39857;-80
2022/09/21 01:33:48;;;;;;;3.80;2.20;;;10.80;99.90;;;;;;4873678;29;39484;-80
2022/09/21 01:36:19;;;;;;;6.10;2.30;;;10.90;99.90;;;;;;4848471;29;38855;-80
2022/09/21 01:38:52;;;;;;;5.65;2.47;;;10.90;99.90;;;;;;4870961;29;37267;-80
2022/09/21 01:41:24;;;;;;;6.30;2.10;;;10.90;99.90;;;;;;4874920;29;38909;-80
2022/09/21 01:43:56;;;;;;;5.47;2.15;;;10.90;99.90;;;;;;4877989;29;38713;-80
2022/09/21 01:46:28;;;;;;;3.50;2.47;;;10.90;99.90;;;;;;4874496;29;37379;-80
2022/09/21 01:49:03;;;;;;;4.35;2.47;;;10.90;99.90;;;;;;4874090;29;37942;-80
2022/09/21 01:51:32;;;;;;;7.75;2.35;;;11.00;99.90;;;;;;4871731;29;48845;-80
2022/09/21 01:54:07;;;;;;;7.25;2.83;;;11.00;99.90;;;;;;4872732;29;39380;-80
2022/09/21 01:56:50;;;;;;;4.32;2.40;;;11.00;99.90;;;;;;4871719;29;47135;-80
2022/09/21 01:59:29;;;;;;;;;;;11.00;99.90;;;;;;4873944;29;38216;-80
2022/09/21 02:01:59;;;;;;;6.55;2.63;;;11.00;99.90;;;;;;4861415;29;40979;-80
2022/09/21 02:04:26;;;;;;;3.70;2.30;;;11.00;99.90;;;;;;4854009;29;39533;-80
2022/09/21 02:06:53;;;;;;;7.13;2.50;;;11.00;99.90;;;;;;4874722;29;40363;-80
2022/09/21 02:09:19;;;;;;;6.35;2.70;;;10.90;99.90;;;;;;4872323;29;36169;-81
2022/09/21 02:11:45;;;;;;;4.50;2.65;;;10.90;99.90;;;;;;4872892;29;39049;-79
2022/09/21 02:14:21;;;;;;;3.15;2.25;;;10.90;99.90;;;;;;4873037;29;39424;-80
2022/09/21 02:17:14;;;;;;;5.28;2.47;;;10.90;99.90;;;;;;4863352;29;38927;-80
2022/09/21 02:20:21;;;;;;;5.60;1.98;;;10.90;99.90;;;;;;4869797;29;46892;-80
2022/09/21 02:22:58;;;;;;;5.68;2.63;;;10.80;99.90;;;;;;4854154;29;46789;-80
2022/09/21 02:25:44;;;;;;;1.92;1.60;;;10.80;99.90;;;;;;4876469;29;39498;-80
2022/09/21 02:28:15;;;;;;;4.80;2.40;;;10.80;99.90;;;;;;4865240;29;39689;-81
2022/09/21 02:30:50;;;;;;;4.78;2.20;;;10.70;99.90;;;;;;4874916;29;37904;-80
2022/09/21 02:33:26;;;;;;;6.63;2.42;;;10.80;99.90;;;;;;4865882;29;39260;-80
2022/09/21 02:36:03;;;;;;;5.32;2.20;;;10.80;99.90;;;;;;4880643;29;39640;-80
2022/09/21 02:38:39;;;;;;;3.05;2.08;;;10.80;99.90;;;;;;4877688;29;39435;-79
2022/09/21 02:41:23;;;;;;;4.18;2.20;;;10.80;99.90;;;;;;4873803;29;37102;-80
2022/09/21 02:44:22;;;;;;;4.03;2.03;;;10.90;99.90;;;;;;4872502;29;39845;-80
2022/09/21 02:47:17;;;;;;;3.83;2.10;;;10.90;99.90;;;;;;4868600;29;48671;-81
2022/09/21 02:49:50;;;;;;;6.40;2.65;;;10.90;99.90;;;;;;4876209;29;48812;-80
2022/09/21 02:52:18;;;;;;;5.22;2.35;;;11.00;99.90;;;;;;4870809;29;37823;-80
2022/09/21 02:54:48;;;;;;;5.03;2.80;;;11.00;99.90;;;;;;4877850;29;39628;-80
2022/09/21 02:57:17;;;;;;;3.60;2.55;;;11.10;99.90;;;;;;4861450;29;39434;-80
2022/09/21 02:59:44;;;;;;;4.63;2.50;;;11.10;99.90;;;;;;4876950;29;38246;-81
2022/09/21 03:02:14;;;;;;;2.55;1.90;;;11.10;99.90;;;;;;4874565;29;35474;-81
2022/09/21 03:04:46;;;;;;;4.53;2.40;;;11.10;99.90;;;;;;4861754;29;40449;-81
2022/09/21 03:07:20;;;;;;;3.65;2.03;;;11.20;99.90;;;;;;4861754;29;39613;-80
2022/09/21 03:09:46;;;;;;;4.15;2.70;;;11.20;99.90;;;;;;4880535;29;39720;-80
2022/09/21 03:12:12;;;;;;;6.95;2.30;;;11.20;99.90;;;;;;4862892;29;38084;-80
2022/09/21 03:14:39;;;;;;;6.70;2.50;;;11.20;99.90;;;;;;4879757;29;37470;-80
2022/09/21 03:17:05;;;;;;;5.63;2.50;;;11.20;99.90;;;;;;4865019;29;38970;-80
2022/09/21 03:19:31;;;;;;;2.70;2.17;;;11.20;99.90;;;;;;4877737;29;38665;-79
2022/09/21 03:21:58;;;;;;;6.30;2.50;;;11.30;99.90;;;;;;4876653;29;38202;-81
2022/09/21 03:27:09;;;;;;;6.50;2.53;;;11.20;99.90;;;;;;4880107;29;41035;-80
2022/09/21 03:29:35;;;;;;;7.60;2.03;;;11.30;99.90;;;;;;4883221;29;38688;-81
2022/09/21 03:32:02;;;;;;;7.35;2.40;;;11.20;99.90;;;;;;4870469;29;36035;-81
2022/09/21 03:34:33;;;;;;;4.72;2.42;;;11.20;99.90;;;;;;4890559;29;46779;-81
2022/09/21 03:37:04;;;;;;;5.47;2.67;;;11.20;99.90;;;;;;4891923;29;39313;-80
2022/09/21 03:39:30;;;;;;;4.40;2.45;;;11.10;99.90;;;;;;4884771;29;46788;-81
2022/09/21 03:41:57;;;;;;;5.07;2.53;;;11.10;99.90;;;;;;4883009;29;35874;-81
2022/09/21 03:44:24;;;;;;;4.97;2.42;;;11.10;99.90;;;;;;4886578;29;37509;-81
2022/09/21 03:46:51;;;;;;;6.85;2.47;;;11.10;99.90;;;;;;4871335;29;37528;-81
2022/09/21 03:49:18;;;;;;;4.70;2.10;;;11.00;99.90;;;;;;4882833;29;38271;-81
2022/09/21 03:51:44;;;;;;;3.58;2.10;;;11.00;99.90;;;;;;4881340;29;35462;-80
2022/09/21 03:54:10;;;;;;;4.43;2.40;;;11.00;99.90;;;;;;4863585;29;39761;-81
2022/09/21 03:56:37;;;;;;;3.67;2.25;;;11.00;99.90;;;;;;4878958;29;39095;-80
2022/09/21 03:59:03;;;;;;;5.47;1.80;;;10.90;99.90;;;;;;4879119;29;39012;-80
2022/09/21 04:01:30;;;;;;;5.03;2.05;;;10.90;99.90;;;;;;4869711;29;35561;-80
2022/09/21 04:03:56;;;;;;;2.50;1.90;;;10.90;99.90;;;;;;4883851;29;39439;-80
2022/09/21 04:06:22;;;;;;;3.30;1.95;;;10.80;99.90;;;;;;4885880;29;39715;-81
2022/09/21 04:08:48;;;;;;;6.25;2.60;;;10.80;99.90;;;;;;4883579;29;38187;-81
2022/09/21 04:11:17;;;;;;;4.57;2.37;;;10.70;99.90;;;;;;4883983;29;36369;-81
2022/09/21 04:13:47;;;;;;;4.38;2.47;;;10.60;99.90;;;;;;4865807;29;39799;-79
2022/09/21 04:16:15;;;;;;;7.35;2.20;;;10.60;99.90;;;;;;4883355;29;38895;-81
2022/09/21 04:18:41;;;;;;;6.37;2.40;;;10.60;99.90;;;;;;4883058;29;38650;-80
2022/09/21 04:21:07;;;;;;;4.50;2.40;;;10.50;99.90;;;;;;4881312;29;37780;-81
2022/09/21 04:23:33;;;;;;;6.57;2.50;;;10.50;99.90;;;;;;4879509;29;37478;-80
2022/09/21 04:26:01;;;;;;;3.37;2.33;;;10.50;99.90;;;;;;4873353;29;37689;-80
2022/09/21 04:28:28;;;;;;;4.97;2.23;;;10.50;99.90;;;;;;4876404;29;38133;-80
2022/09/21 04:30:54;;;;;;;3.90;2.33;;;10.50;99.90;;;;;;4882240;29;37090;-80
2022/09/21 04:33:23;;;;;;;3.90;2.37;;;10.40;99.90;;;;;;4878086;29;39532;-81
2022/09/21 04:35:56;;;;;;;6.33;2.40;;;10.40;99.90;;;;;;4880066;29;39078;-81
2022/09/21 04:38:22;;;;;;;7.40;3.13;;;10.30;99.90;;;;;;4876850;29;40114;-80
2022/09/21 04:40:56;;;;;;;6.67;2.37;;;10.30;99.90;;;;;;4882759;29;37237;-80
2022/09/21 04:43:23;;;;;;;4.33;2.60;;;10.30;99.90;;;;;;4872572;29;39611;-81
2022/09/21 04:45:50;;;;;;;4.37;2.30;;;10.30;99.90;;;;;;4879858;29;39359;-81
2022/09/21 04:48:17;;;;;;;4.77;2.50;;;10.20;99.90;;;;;;4884455;29;39089;-81
2022/09/21 04:50:47;;;;;;;4.93;2.70;;;10.20;99.90;;;;;;4877460;29;38939;-79
2022/09/21 04:53:13;;;;;;;4.10;2.27;;;10.20;99.90;;;;;;4880981;29;39067;-81
2022/09/21 04:55:39;;;;;;;4.97;2.70;;;10.20;99.90;;;;;;4858520;29;39235;-81
2022/09/21 04:58:05;;;;;;;4.07;2.37;;;10.10;99.90;;;;;;4876712;29;39262;-81
2022/09/21 05:00:31;;;;;;;6.33;2.53;;;10.10;99.90;;;;;;4865866;29;37456;-79
2022/09/21 05:02:57;;;;;;;5.10;2.10;;;10.00;99.90;;;;;;4886206;29;39125;-80
2022/09/21 05:05:23;;;;;;;4.83;3.03;;;10.00;99.90;;;;;;4882968;29;39131;-80
2022/09/21 05:07:49;;;;;;;3.47;2.30;;;10.00;99.90;;;;;;4878313;29;38491;-81
2022/09/21 05:10:15;;;;;;;2.90;2.37;;;10.00;99.90;;;;;;4871558;29;36826;-81
2022/09/21 05:12:42;;;;;;;4.03;2.43;;;10.00;99.90;;;;;;4883840;29;38860;-81
2022/09/21 05:15:10;;;;;;;3.70;2.30;;;10.00;99.90;;;;;;4879123;29;38594;-81
2022/09/21 05:17:36;;;;;;;5.63;2.57;;;10.10;99.90;;;;;;4881849;29;37570;-80
2022/09/21 05:20:06;;;;;;;4.67;2.50;;;10.10;99.90;;;;;;4881455;29;38680;-81
2022/09/21 05:22:32;;;;;;;5.57;2.70;;;10.10;99.90;;;;;;4879968;29;48630;-81
2022/09/21 05:24:58;;;;;;;5.47;2.30;;;10.00;99.90;;;;;;4872199;29;38866;-81
2022/09/21 05:27:24;;;;;;;6.80;3.03;;;10.00;99.90;;;;;;4878721;29;38348;-80
2022/09/21 05:29:50;;;;;;;5.33;2.70;;;10.00;99.90;;;;;;4874214;29;35863;-81
2022/09/21 05:32:46;;;;;;;5.63;2.63;;;10.00;99.90;;;;;;4874076;29;39527;-80
2022/09/21 05:35:26;;;;;;;7.20;3.20;;;10.00;99.90;;;;;;4858382;29;40156;-80
2022/09/21 05:38:01;;;;;;;6.03;2.90;;;10.00;99.90;;;;;;4858422;29;37347;-81
2022/09/21 05:40:28;;;;;;;5.37;2.80;;;10.00;99.90;;;;;;4874420;29;38455;-80
2022/09/21 05:42:55;;;;;;;6.68;2.95;;;9.90;99.90;;;;;;4881012;29;38815;-79
2022/09/21 05:45:22;;;;;;;5.23;3.23;;;9.90;99.90;;;;;;4875597;29;39401;-79
2022/09/21 05:48:12;;;;;;;4.40;3.17;;;9.90;99.90;;;;;;4879124;29;39606;-78
2022/09/21 05:51:05;;;;;;;5.00;2.58;;;9.90;99.90;;;;;;4873508;29;45862;-79
2022/09/21 05:53:42;;;;;;;;;;;9.90;99.90;;;;;;4879673;29;46726;-79
2022/09/21 05:56:32;;;;;;;6.17;3.10;;;9.90;99.90;;;;;;4876059;29;39198;-79
2022/09/21 06:01:53;;;;;;;5.67;3.53;;;10.00;99.90;;;;;;4916200;29;20039;-80
2022/09/21 06:04:27;;;;;;;8.13;3.70;;;10.00;99.90;;;;;;4890622;29;38045;-81
2022/09/21 06:06:54;;;;;;;8.73;3.80;;;10.00;99.90;;;;;;4961592;23;38611;-80
2022/09/21 06:09:20;;;;;;;8.40;3.83;;;10.00;99.90;;;;;;5268790;23;37930;-81
2022/09/21 06:11:46;;;;;;;3.53;3.20;;;10.00;99.90;;;;;;4903199;29;38916;-82
2022/09/21 06:14:13;;;;;;;11.13;3.80;;;10.00;99.90;;;;;;5511748;23;38324;-81
2022/09/21 06:19:15;;;;;;;10.27;3.57;;;10.00;99.90;;;;;;5755968;23;20049;-82
2022/09/21 06:24:20;;;;;;;6.03;3.70;;;9.90;99.90;;;;;;5435515;23;20037;-82
2022/09/21 06:27:24;;;;;;;5.03;2.93;;;10.00;99.90;;;;;;4903249;29;37560;-83
2022/09/21 06:35:30;;;;;;;4.17;2.93;;;10.20;99.90;;;;;;5002334;23;20769;-81
2022/09/21 06:38:05;;;;;;;4.47;3.13;;;10.40;99.90;;;;;;4906919;29;38170;-81
2022/09/21 06:40:33;;;;;;;6.78;3.70;;;10.50;99.90;;;;;;4895322;29;47220;-81
2022/09/21 06:43:01;;;;;;;7.55;4.70;;;10.50;99.90;;;;;;4922130;29;38169;-81
2022/09/21 06:45:29;;;;;;;8.85;3.63;;;10.60;99.90;;;;;;4898257;29;37327;-82
2022/09/21 06:47:55;;;;;;;7.32;3.35;;;10.70;99.90;;;;;;4917963;29;39801;-80
2022/09/21 06:50:21;;;;;;;5.57;3.63;;;10.70;99.90;;;;;;4909402;29;38581;-81
2022/09/21 06:52:48;;;;;;;5.25;3.67;;;10.70;99.90;;;;;;4908918;29;37631;-80
2022/09/21 06:55:14;;;;;;;6.07;3.95;;;10.70;99.90;;;;;;4914726;29;37619;-80
2022/09/21 06:57:40;;;;;;;10.57;3.80;;;10.80;99.90;;;;;;4889359;29;38199;-80
2022/09/21 07:00:31;;;;;;;9.43;3.90;;;10.80;99.90;;;;;;4925721;28;39094;-82
2022/09/21 07:03:00;;;;;;;8.75;4.00;;;10.80;99.90;;;;;;4920331;28;48042;-82
2022/09/21 07:05:26;;;;;;;12.93;4.63;;;10.90;99.90;;;;;;4912346;29;40336;-82
2022/09/21 07:08:05;;;;;;;9.95;5.45;;;10.90;99.90;;;;;;4934896;28;39370;-82
2022/09/21 07:10:33;;;;;;;10.82;5.50;;;10.90;99.90;;;;;;4931967;29;49761;-82
2022/09/21 07:13:08;;;;;;;15.68;5.55;;;11.00;99.90;;;;;;5247259;23;40088;-82
2022/09/21 07:15:34;;;;;;;19.45;6.18;;;11.10;99.90;;;;;;4904277;29;46415;-81
2022/09/21 07:18:10;;;;;;;9.52;5.55;;;11.30;99.90;;;;;;4909198;28;37865;-82
2022/09/21 07:20:36;;;;;;;12.02;5.57;;;11.40;99.90;;;;;;4910991;29;47539;-82
2022/09/21 07:23:15;;;;;;;15.30;6.28;;;11.50;99.90;;;;;;4910580;29;36372;-80
2022/09/21 07:25:42;;;;;;;12.25;4.72;;;11.60;99.90;;;;;;4898922;29;48626;-81
2022/09/21 07:28:11;;;;;;;11.90;5.10;;;11.80;99.90;;;;;;5027964;23;38512;-80
2022/09/21 07:30:48;;;;;;;10.73;4.93;;;12.10;99.90;;;;;;5100043;23;40045;-81
2022/09/21 07:33:14;;;;;;;10.18;4.50;;;12.20;99.90;;;;;;4917268;29;38334;-81
2022/09/21 07:35:50;;;;;;;12.93;5.30;;;12.30;99.90;;;;;;5206926;23;37523;-83
2022/09/21 07:38:18;;;;;;;11.85;4.60;;;12.50;99.90;;;;;;4918365;29;39041;-84
2022/09/21 07:40:45;;;;;;;9.70;4.22;;;12.70;99.90;;;;;;5379609;23;37620;-83
2022/09/21 07:43:11;;;;;;;10.10;4.38;;;12.80;99.90;;;;;;4894756;29;37342;-81
2022/09/21 07:45:38;;;;;;;10.80;3.70;;;12.80;99.90;;;;;;4904057;29;36292;-82
2022/09/21 07:48:05;;;;;;;8.35;2.95;;;12.90;99.90;;;;;;4893273;29;38987;-81
2022/09/21 07:50:33;;;;;;;9.93;2.55;;;13.00;99.90;;;;;;4908790;29;36982;-81
2022/09/21 07:53:00;;;;;;;11.35;2.72;;;13.20;99.90;;;;;;4911231;29;36129;-83
2022/09/21 07:55:27;;;;;;;14.63;2.53;;;13.30;99.90;;;;;;4910845;29;40356;-81
2022/09/21 08:00:38;;;;;;;12.73;2.72;;;13.60;99.90;;;;;;4914731;29;50800;-81
2022/09/21 08:03:04;;;;;;;8.05;2.30;;;13.70;99.90;;;;;;4897023;29;37149;-80
2022/09/21 08:05:37;;;;;;;13.40;2.40;;;13.70;99.90;;;;;;4891730;29;38519;-81
2022/09/21 08:08:03;;;;;;;8.60;2.35;;;13.80;99.90;;;;;;4886417;29;38816;-82
2022/09/21 08:10:30;;;;;;;6.00;1.75;;;13.90;99.90;;;;;;4898783;29;38392;-81
2022/09/21 08:12:57;;;;;;;9.55;2.53;;;13.90;99.90;;;;;;4894285;29;37034;-81
2022/09/21 08:15:23;;;;;;;6.32;2.40;;;13.90;99.90;;;;;;4915923;29;39102;-82
2022/09/21 08:17:50;;;;;;;6.97;2.17;;;14.10;99.90;;;;;;4907937;29;38979;-81
2022/09/21 08:20:17;;;;;;;8.65;2.40;;;14.10;99.90;;;;;;4912518;29;37368;-81
2022/09/21 08:25:22;;;;;;;7.45;2.10;;;14.30;99.90;;;;;;5547418;23;20019;-79
2022/09/21 08:28:01;;;;;;;10.52;2.08;;;14.40;99.90;;;;;;5289866;23;40271;-82
2022/09/21 08:33:06;;;;;;;6.15;1.90;;;14.70;99.90;;;;;;5024111;23;20045;-80
2022/09/21 08:35:35;;;;;;;7.70;1.70;;;14.90;99.90;;;;;;4919647;29;38003;-80
2022/09/21 08:38:05;;;;;;;3.45;1.45;;;14.90;99.90;;;;;;4909143;29;39359;-80
2022/09/21 08:40:33;;;;;;;8.55;1.63;;;14.90;99.90;;;;;;4903111;29;47951;-80
2022/09/21 08:43:45;;;;;;;6.55;1.70;;;14.90;99.90;;;;;;4926995;29;36671;-80
2022/09/21 08:46:19;;;;;;;4.82;1.75;;;14.90;99.90;;;;;;4831305;29;46899;-80
2022/09/21 08:48:57;;;;;;;8.60;1.77;;;15.10;99.90;;;;;;4909692;29;39493;-81
2022/09/21 08:51:30;;;;;;;7.53;1.40;;;15.20;99.90;;;;;;4914745;29;38130;-81
2022/09/21 08:54:02;;;;;;;4.35;1.52;;;15.40;99.90;;;;;;4896607;29;36658;-81
2022/09/21 08:56:30;;;;;;;9.98;1.65;;;15.40;99.90;;;;;;4908667;29;47039;-80
2022/09/21 08:58:57;;;;;;;5.40;1.40;;;15.60;99.90;;;;;;4928912;29;41732;-80
2022/09/21 09:01:57;;;;;;;9.25;1.30;;;15.70;99.90;;;;;;4905287;29;37613;-80
2022/09/21 09:04:38;;;;;;;3.90;0.90;;;15.90;99.90;;;;;;4907557;29;37613;-83
2022/09/21 09:07:29;;;;;;;3.92;1.17;;;16.10;99.90;;;;;;4911419;29;39659;-82
2022/09/21 09:10:33;;;;;;;3.95;0.90;;;16.20;99.90;;;;;;4910500;29;40047;-83
2022/09/21 09:13:18;;;;;;;5.28;1.35;;;16.50;99.90;;;;;;4867589;29;48379;-81
2022/09/21 09:16:22;;;;;;;3.97;1.35;;;16.80;99.90;;;;;;4883720;29;46343;-82
2022/09/21 09:19:02;;;;;;;3.72;1.15;;;16.70;99.90;;;;;;4889002;29;47625;-81
2022/09/21 09:21:34;;;;;;;6.43;1.10;;;16.20;99.90;;;;;;4903942;29;48554;-83
2022/09/21 09:24:24;;;;;;;8.05;1.40;;;16.40;99.90;;;;;;4893394;29;37646;-83
2022/09/21 09:27:05;;;;;;;7.40;0.80;;;16.60;99.90;;;;;;4892607;29;47431;-82
2022/09/21 09:29:37;;;;;;;3.30;0.90;;;16.60;99.90;;;;;;4893858;29;47340;-83
2022/09/21 09:32:04;;;;;;;4.10;0.75;;;16.30;99.90;;;;;;4906897;29;38936;-83
2022/09/21 09:34:41;;;;;;;2.50;0.90;;;16.60;99.90;;;;;;4894888;29;38466;-84
2022/09/21 09:37:15;;;;;;;6.93;0.93;;;16.70;99.90;;;;;;4911639;29;37921;-84
2022/09/21 09:39:47;;;;;;;4.35;0.82;;;16.80;99.90;;;;;;4907298;29;38081;-82
2022/09/21 09:42:39;;;;;;;5.30;1.00;;;16.90;99.90;;;;;;4909429;29;41824;-83
2022/09/21 09:45:20;;;;;;;3.03;0.80;;;16.90;99.90;;;;;;4905110;29;38443;-83
2022/09/21 09:47:55;;;;;;;4.03;1.00;;;16.70;99.90;;;;;;4888520;29;37966;-83
2022/09/21 09:50:32;;;;;;;4.95;1.10;;;16.70;99.90;;;;;;4900978;29;37764;-84
2022/09/21 09:53:04;;;;;;;3.90;0.88;;;16.60;99.90;;;;;;4908481;29;39152;-82
2022/09/21 09:55:34;;;;;;;;;;;16.70;99.90;;;;;;4908025;29;45111;-83
2022/09/21 09:58:01;;;;;;;4.05;0.55;;;17.00;99.90;;;;;;4911723;29;37671;-83
2022/09/21 10:00:27;;;;;;;4.10;1.20;;;17.50;99.90;;;;;;4906109;29;39062;-84
2022/09/21 10:02:56;;;;;;;5.35;1.00;;;17.70;99.90;;;;;;4911197;29;40308;-83
2022/09/21 10:05:30;;;;;;;2.08;0.80;;;17.90;99.90;;;;;;4888836;29;37255;-83
2022/09/21 10:07:57;;;;;;;3.25;0.68;;;17.70;99.90;;;;;;4909072;29;37053;-84
2022/09/21 10:10:31;;;;;;;6.22;1.02;;;17.60;99.90;;;;;;4885767;29;39022;-82
2022/09/21 10:13:10;;;;;;;5.50;0.70;;;18.00;99.90;;;;;;4900029;29;38086;-84
2022/09/21 10:15:48;;;;;;;6.25;1.05;;;18.20;99.90;;;;;;4891982;29;45576;-83
2022/09/21 10:18:19;;;;;;;3.15;0.93;;;18.30;99.90;;;;;;4911169;29;37432;-83
2022/09/21 10:20:55;;;;;;;5.22;0.70;;;18.20;99.90;;;;;;4905466;29;38802;-81
2022/09/21 10:23:21;;;;;;;5.75;0.98;;;18.10;99.90;;;;;;4903042;29;38550;-81
2022/09/21 10:26:15;;;;;;;8.43;1.30;;;18.00;99.90;;;;;;4912168;29;39190;-83
2022/09/21 10:29:24;;;;;;;4.40;0.80;;;17.80;99.90;;;;;;4889242;29;48787;-81
2022/09/21 10:32:02;;;;;;;5.10;0.75;;;18.00;99.90;;;;;;4835663;29;47107;-83
2022/09/21 10:34:30;;;;;;;6.30;0.80;;;18.10;99.90;;;;;;4831038;29;48740;-84
2022/09/21 10:36:59;;;;;;;3.45;0.88;;;17.90;99.90;;;;;;4876336;29;37370;-83
2022/09/21 10:39:26;;;;;;;2.45;0.80;;;17.80;99.90;;;;;;4891862;29;36262;-85
2022/09/21 10:41:58;;;;;;;6.82;1.42;;;17.90;99.90;;;;;;4889623;29;38740;-79
2022/09/21 10:44:47;;;;;;;7.18;0.75;;;18.10;99.90;;;;;;4895667;29;37591;-80
2022/09/21 10:47:34;;;;;;;4.90;0.65;;;18.50;99.90;;;;;;4908661;29;37955;-82
2022/09/21 10:50:05;;;;;;;2.28;0.57;;;18.10;99.90;;;;;;4912734;29;38057;-81
2022/09/21 10:52:42;;;;;;;5.13;0.80;;;17.70;99.90;;;;;;4910227;29;47771;-82
2022/09/21 10:55:17;;;;;;;2.72;0.60;;;17.80;99.90;;;;;;4907133;29;37961;-82
2022/09/21 10:57:44;;;;;;;4.60;0.85;;;17.90;99.90;;;;;;4888633;29;39160;-82
2022/09/21 11:00:33;;;;;;;3.40;0.77;;;18.10;99.90;;;;;;4908957;29;37680;-82
2022/09/21 11:03:05;;;;;;;3.13;0.80;;;18.30;99.90;;;;;;4873317;29;38116;-81
2022/09/21 11:05:36;;;;;;;2.80;0.60;;;18.70;99.90;;;;;;4903287;29;48638;-80
2022/09/21 11:08:17;;;;;;;2.30;0.40;;;18.40;99.90;;;;;;4889177;29;37812;-81
2022/09/21 11:10:54;;;;;;;3.90;0.95;;;18.60;99.90;;;;;;4909653;29;48431;-81
2022/09/21 11:13:35;;;;;;;4.05;0.63;;;18.50;99.90;;;;;;4908495;29;38853;-80
2022/09/21 11:16:23;;;;;;;2.33;0.52;;;18.40;99.90;;;;;;4903851;29;39200;-80
2022/09/21 11:19:04;;;;;;;3.45;0.68;;;18.70;99.90;;;;;;4886782;29;47491;-80
2022/09/21 11:21:52;;;;;;;9.13;0.77;;;18.90;99.90;;;;;;4908864;29;48756;-82
2022/09/21 11:24:51;;;;;;;1.95;0.60;;;18.20;99.90;;;;;;4908869;29;38221;-80
2022/09/21 11:27:41;;;;;;;3.05;0.68;;;18.20;99.90;;;;;;4907399;29;39439;-82
2022/09/21 11:30:13;;;;;;;5.70;0.60;;;18.50;99.90;;;;;;4899414;29;38153;-82
2022/09/21 11:33:06;;;;;;;3.47;0.90;;;18.40;99.90;;;;;;4894673;29;38054;-82
2022/09/21 11:35:41;;;;;;;5.72;0.90;;;18.20;99.90;;;;;;4907391;29;48138;-81
2022/09/21 11:38:31;;;;;;;2.85;0.60;;;18.10;99.90;;;;;;4911835;29;37813;-82
2022/09/21 11:41:12;;;;;;;1.50;0.60;;;18.30;99.90;;;;;;4895672;29;38122;-84
2022/09/21 11:44:08;;;;;;;1.52;0.40;;;18.60;99.90;;;;;;4909627;29;48025;-85
2022/09/21 11:46:59;;;;;;;3.40;1.05;;;18.80;99.90;;;;;;4907360;29;49050;-84
2022/09/21 11:49:56;;;;;;;1.67;0.60;;;18.50;99.90;;;;;;4896076;29;38541;-85
2022/09/21 11:52:31;;;;;;;3.17;0.80;;;18.50;99.90;;;;;;4892196;29;38757;-84
2022/09/21 11:54:59;;;;;;;3.78;0.60;;;18.30;99.90;;;;;;4901524;29;36479;-86
2022/09/21 11:57:43;;;;;;;3.63;0.90;;;18.30;99.90;;;;;;4907659;29;39694;-84
2022/09/21 12:00:14;;;;;;;4.10;0.82;;;18.30;99.90;;;;;;4890815;29;38369;-84
2022/09/21 12:02:50;;;;;;;3.03;0.65;;;18.30;99.90;;;;;;4895237;29;47131;-85
2022/09/21 12:05:26;;;;;;;0.73;0.38;;;18.30;99.90;;;;;;4911342;29;37085;-86
2022/09/21 12:08:14;;;;;;;5.50;0.90;;;18.40;99.90;;;;;;4904580;29;37522;-84
2022/09/21 12:11:01;;;;;;;2.65;0.55;;;18.70;99.90;;;;;;4918720;29;49798;-84
2022/09/21 12:13:49;;;;;;;3.17;0.75;;;19.00;99.90;;;;;;4911797;29;39442;-84
2022/09/21 12:16:48;;;;;;;3.40;0.65;;;18.80;99.90;;;;;;4910846;29;36853;-84
2022/09/21 12:19:38;;;;;;;5.28;1.13;;;19.20;99.90;;;;;;4908310;29;39560;-84
2022/09/21 12:22:16;;;;;;;3.00;0.85;;;19.60;99.90;;;;;;4899857;29;38065;-83
2022/09/21 12:24:53;;;;;;;3.53;0.70;;;19.70;99.90;;;;;;4894260;29;38793;-84
2022/09/21 12:27:28;;;;;;;3.13;0.70;;;19.80;99.90;;;;;;4912540;29;38368;-84
2022/09/21 12:30:16;;;;;;;3.25;0.88;;;19.70;99.90;;;;;;4891277;29;37752;-86
2022/09/21 12:33:04;;;;;;;4.40;1.10;;;19.50;99.90;;;;;;4894771;29;47332;-84
2022/09/21 12:36:09;;;;;;;3.08;0.80;;;19.20;99.90;;;;;;4909685;29;47302;-84
2022/09/21 12:38:43;;;;;;;6.57;0.75;;;19.00;99.90;;;;;;4860051;29;47718;-85
2022/09/21 12:41:38;;;;;;;5.05;0.60;;;18.70;99.90;;;;;;4910970;29;40300;-85
2022/09/21 12:44:04;;;;;;;1.90;0.40;;;18.40;99.90;;;;;;4900869;29;37850;-85
2022/09/21 12:46:47;;;;;;;4.70;1.10;;;18.20;99.90;;;;;;4895536;29;38306;-86
2022/09/21 12:49:39;;;;;;;3.05;0.80;;;18.50;99.90;;;;;;4892916;29;36396;-85
2022/09/21 12:52:06;;;;;;;2.05;0.70;;;18.70;99.90;;;;;;4897123;29;38407;-85
2022/09/21 12:54:41;;;;;;;3.65;0.68;;;19.10;99.90;;;;;;4902197;29;38737;-84
2022/09/21 12:57:25;;;;;;;3.60;0.63;;;19.20;99.90;;;;;;4887253;29;40078;-83
2022/09/21 13:00:08;;;;;;;1.90;0.63;;;19.40;99.90;;;;;;4908822;29;36439;-83
2022/09/21 13:02:46;;;;;;;3.63;0.60;;;19.90;99.90;;;;;;4892266;29;47046;-82
2022/09/21 13:05:34;;;;;;;3.25;0.63;;;19.90;99.90;;;;;;4888169;29;37454;-83
2022/09/21 13:08:16;;;;;;;4.60;0.77;;;19.30;99.90;;;;;;4888319;29;39649;-83
2022/09/21 13:10:54;;;;;;;2.72;0.55;;;19.10;99.90;;;;;;4884663;29;47390;-82
2022/09/21 13:14:07;;;;;;;2.88;0.65;;;18.70;99.90;;;;;;4903800;29;39253;-91
2022/09/21 13:16:38;;;;;;;2.75;0.60;;;18.50;99.90;;;;;;4818686;29;47190;-91
2022/09/21 13:19:19;;;;;;;1.15;0.50;;;18.40;99.90;;;;;;4813303;29;38157;-85
2022/09/21 13:21:45;;;;;;;3.17;0.60;;;18.40;99.90;;;;;;4876622;29;38641;-77
2022/09/21 13:24:27;;;;;;;2.45;0.85;;;18.40;99.90;;;;;;4849806;29;40603;-78
2022/09/21 13:27:05;;;;;;;5.03;0.75;;;18.40;99.90;;;;;;4889095;29;37868;-77
2022/09/21 13:29:35;;;;;;;2.25;0.70;;;18.30;99.90;;;;;;4889692;29;47113;-79
2022/09/21 13:32:09;;;;;;;3.08;0.70;;;18.20;99.90;;;;;;4906298;29;37302;-78
2022/09/21 13:34:40;;;;;;;3.85;0.60;;;18.30;99.90;;;;;;4908953;29;48423;-79
2022/09/21 13:37:21;;;;;;;2.55;0.68;;;18.10;99.90;;;;;;4883698;29;37768;-78
2022/09/21 13:40:09;;;;;;;1.63;0.65;;;17.90;99.90;;;;;;4905252;29;38519;-79
2022/09/21 13:42:35;;;;;;;1.30;0.52;;;17.70;99.90;;;;;;4903087;29;46987;-77
2022/09/21 13:45:23;;;;;;;0.55;0.32;;;17.90;99.90;;;;;;4894319;29;39020;-78
2022/09/21 13:47:59;;;;;;;3.92;0.93;;;17.90;99.90;;;;;;4890054;29;47139;-78